Glen Avon, Illinois
Current Conditions -  °F | °C
As of 10:10 AM on Thursday 30 Oct 2014 (Local Time) from KTIP Reporting Station
Clear Clear  
Wind Chill: 44°   Ceiling: Unl
Heat Index: 48°   Visibility: 10mi
Dew Point: 37°   Wind: 8mph
Humidity: 66%   Direction: 200°SSW
Pressure: 30.16"   Gusts: NA
Location:  40.3398°N, 88.5173°W
Report Text: KTIP 301510Z AUTO 20007KT 10SM CLR 09/03 A3016 RMK AO2 T00870026
Loading
Personal Weather Stations






























Interactive Weather Map
Tropical Storm Tracking
New forecast layout! Learn more

10-Day Weather Forecast

Advertisements
Track Severe Weather on mobile